Time;durP1;ratioP1;P1;durP2;ratioP2;P2;SDS_P1;SDS_P2;PMS_P1;PMS_P2;Temp;Humidity;BMP_temperature;BMP_pressure;BME280_temperature;BME280_humidity;BME280_pressure;Samples;Min_cycle;Max_cycle;Signal;HPM_P1;HPM_P2
2023/03/31 00:01:51;;;;;;;8.35;2.25;;;;;;;-145.50;100.00;65435.88;4922334;29;20142;-65
2023/03/31 00:04:22;;;;;;;10.38;2.58;;;;;;;-145.50;100.00;65435.88;4935749;29;20124;-66
2023/03/31 00:06:52;;;;;;;10.73;3.03;;;;;;;-145.50;100.00;65435.88;4930031;29;20143;-66
2023/03/31 00:09:23;;;;;;;15.63;3.88;;;;;;;-145.50;100.00;65435.88;4914373;29;20059;-65
2023/03/31 00:11:50;;;;;;;13.77;2.92;;;;;;;-145.50;100.00;65435.88;4923485;29;20051;-67
2023/03/31 00:14:19;;;;;;;14.35;2.53;;;;;;;-145.50;100.00;65435.88;4920323;29;20138;-68
2023/03/31 00:16:46;;;;;;;;;;;;;;;-145.50;100.00;65435.88;4938143;29;20590;-66
2023/03/31 00:19:19;;;;;;;11.93;2.47;;;;;;;-145.50;100.00;65435.88;4919786;28;19926;-66
2023/03/31 00:21:47;;;;;;;11.30;2.80;;;;;;;-145.50;100.00;65435.88;4923419;29;20067;-66
2023/03/31 00:24:15;;;;;;;12.43;2.47;;;;;;;-145.50;100.00;65435.88;4927932;29;20769;-66
2023/03/31 00:26:42;;;;;;;8.43;2.40;;;;;;;-145.50;100.00;65435.88;4920979;28;20139;-66
2023/03/31 00:29:11;;;;;;;9.93;2.75;;;;;;;-145.50;100.00;65435.88;4915129;29;20098;-66
2023/03/31 00:31:38;;;;;;;7.32;1.90;;;;;;;-145.50;100.00;65435.88;4905728;29;20496;-66
2023/03/31 00:34:05;;;;;;;10.00;2.90;;;;;;;-145.50;100.00;65435.88;4931046;29;20079;-66
2023/03/31 00:36:35;;;;;;;9.20;2.15;;;;;;;-145.50;100.00;65435.88;4899736;29;20111;-66
2023/03/31 00:39:08;;;;;;;7.13;1.85;;;;;;;-145.50;100.00;65435.88;4917114;29;20091;-65
2023/03/31 00:41:37;;;;;;;7.40;2.55;;;;;;;-145.50;100.00;65435.88;4934445;29;20065;-67
2023/03/31 00:44:12;;;;;;;5.90;1.92;;;;;;;-145.50;100.00;65435.88;4926576;29;20437;-65
2023/03/31 00:47:00;;;;;;;8.75;1.70;;;;;;;-145.50;100.00;65435.88;4930628;29;20055;-66
2023/03/31 00:49:32;;;;;;;7.10;1.80;;;;;;;-145.50;100.00;65435.88;4928403;29;20059;-68
2023/03/31 00:52:05;;;;;;;9.70;2.17;;;;;;;-145.50;100.00;65435.88;4922395;29;20047;-65
2023/03/31 00:54:33;;;;;;;7.03;2.10;;;;;;;-145.50;100.00;65435.88;4922198;29;20048;-65
2023/03/31 00:57:02;;;;;;;7.33;2.07;;;;;;;-145.50;100.00;65435.88;4930889;29;20412;-66
2023/03/31 00:59:33;;;;;;;9.95;2.47;;;;;;;-145.50;100.00;65435.88;4928197;28;20977;-65
2023/03/31 01:02:01;;;;;;;8.10;1.80;;;;;;;-145.50;100.00;65435.88;4928505;29;20414;-66
2023/03/31 01:04:33;;;;;;;10.48;2.15;;;;;;;-145.50;100.00;65435.88;4914331;29;20086;-66
2023/03/31 01:07:15;;;;;;;9.82;2.35;;;;;;;-145.50;100.00;65435.88;4929813;28;20051;-65
2023/03/31 01:09:46;;;;;;;7.75;1.70;;;;;;;-145.50;100.00;65435.88;4928767;29;20043;-65
2023/03/31 01:12:15;;;;;;;7.15;2.28;;;;;;;-145.50;100.00;65435.88;4920176;28;20435;-65
2023/03/31 01:14:42;;;;;;;10.02;1.77;;;;;;;-145.50;100.00;65435.88;4928991;29;20706;-66
2023/03/31 01:17:09;;;;;;;7.85;1.88;;;;;;;-145.50;100.00;65435.88;4937018;29;20489;-66
2023/03/31 01:19:53;;;;;;;8.73;1.67;;;;;;;-145.50;100.00;65435.88;4925376;29;20056;-66
2023/03/31 01:22:58;;;;;;;8.10;1.70;;;;;;;-145.50;100.00;65435.88;4923755;28;20055;-65
2023/03/31 01:25:49;;;;;;;8.70;1.90;;;;;;;-145.50;100.00;65435.88;4929180;29;20083;-65
2023/03/31 01:28:26;;;;;;;7.35;1.73;;;;;;;-145.50;100.00;65435.88;4910662;29;20092;-65
2023/03/31 01:31:30;;;;;;;5.85;1.60;;;;;;;-145.50;100.00;65435.88;4930918;29;20059;-66
2023/03/31 01:34:25;;;;;;;7.00;1.20;;;;;;;-145.50;100.00;65435.88;4920555;28;20062;-65
2023/03/31 01:37:29;;;;;;;6.75;1.50;;;;;;;-145.50;100.00;65435.88;4922770;29;20051;-65
2023/03/31 01:40:28;;;;;;;6.75;1.67;;;;;;;-145.50;100.00;65435.88;4916114;29;20048;-65
2023/03/31 01:42:57;;;;;;;6.28;1.25;;;;;;;-145.50;100.00;65435.88;4905189;29;20103;-65
2023/03/31 01:45:55;;;;;;;7.07;1.50;;;;;;;-145.50;100.00;65435.88;4923591;29;20043;-65
2023/03/31 01:48:40;;;;;;;6.47;1.63;;;;;;;-145.50;100.00;65435.88;4927867;29;20062;-65
2023/03/31 01:51:30;;;;;;;8.35;1.50;;;;;;;-145.50;100.00;65435.88;4923157;29;20052;-66
2023/03/31 01:54:29;;;;;;;7.88;2.10;;;;;;;-145.50;100.00;65435.88;4930731;29;20044;-65
2023/03/31 01:57:30;;;;;;;5.68;1.20;;;;;;;-145.50;100.00;65435.88;4910473;29;20048;-67
2023/03/31 02:00:11;;;;;;;7.13;1.70;;;;;;;-145.50;100.00;65435.88;4923391;29;20063;-65
2023/03/31 02:02:45;;;;;;;8.10;1.80;;;;;;;-145.50;100.00;65435.88;4923365;29;20055;-67
2023/03/31 02:05:17;;;;;;;9.82;2.13;;;;;;;-145.50;100.00;65435.88;4940613;29;20053;-65
2023/03/31 02:07:58;;;;;;;8.43;1.90;;;;;;;-145.50;100.00;65435.88;4917727;29;20051;-67
2023/03/31 02:10:28;;;;;;;9.30;1.70;;;;;;;-145.50;100.00;65435.88;4933305;29;20122;-66
2023/03/31 02:12:56;;;;;;;10.57;1.73;;;;;;;-145.50;100.00;65435.88;4930637;29;20057;-66
2023/03/31 02:15:28;;;;;;;9.18;1.83;;;;;;;-145.50;100.00;65435.88;4922485;29;20146;-65
2023/03/31 02:17:58;;;;;;;9.40;2.10;;;;;;;-145.50;100.00;65435.88;4931208;29;20385;-65
2023/03/31 02:20:28;;;;;;;8.65;1.60;;;;;;;-145.50;100.00;65435.88;4929797;28;20501;-65
2023/03/31 02:22:56;;;;;;;9.55;1.90;;;;;;;-145.50;100.00;65435.88;4924875;29;20138;-66
2023/03/31 02:25:30;;;;;;;10.27;2.08;;;;;;;-145.50;100.00;65435.88;4907330;29;20051;-66
2023/03/31 02:28:00;;;;;;;8.35;1.50;;;;;;;-145.50;100.00;65435.88;4925297;29;20061;-67
2023/03/31 02:30:44;;;;;;;8.05;1.75;;;;;;;-145.50;100.00;65435.88;4923703;29;20154;-65
2023/03/31 02:33:11;;;;;;;9.43;2.17;;;;;;;-145.50;100.00;65435.88;4930784;29;20059;-65
2023/03/31 02:35:38;;;;;;;9.40;2.13;;;;;;;-145.50;100.00;65435.88;4934192;29;20890;-66
2023/03/31 02:38:05;;;;;;;10.65;2.28;;;;;;;-145.50;100.00;65435.88;4930535;29;20061;-66
2023/03/31 02:40:34;;;;;;;8.80;2.17;;;;;;;-145.50;100.00;65435.88;4937934;29;20059;-65
2023/03/31 02:43:01;;;;;;;10.82;2.50;;;;;;;-145.50;100.00;65435.88;4926481;28;20428;-65
2023/03/31 02:45:48;;;;;;;7.43;2.08;;;;;;;-145.50;100.00;65435.88;4934510;29;20051;-69
2023/03/31 02:48:18;;;;;;;8.68;2.40;;;;;;;-145.50;100.00;65435.88;4933087;28;20052;-72
2023/03/31 02:50:53;;;;;;;10.55;2.40;;;;;;;-145.50;100.00;65435.88;4927682;29;20134;-70
2023/03/31 02:53:38;;;;;;;7.43;2.10;;;;;;;-145.50;100.00;65435.88;4925030;29;20077;-72
2023/03/31 02:56:34;;;;;;;10.73;1.77;;;;;;;-145.50;100.00;65435.88;4927093;28;20124;-71
2023/03/31 02:59:24;;;;;;;5.78;1.50;;;;;;;-145.50;100.00;65435.88;4940381;29;20063;-71
2023/03/31 03:02:05;;;;;;;8.25;1.80;;;;;;;-145.50;100.00;65435.88;4927622;29;20710;-69
2023/03/31 03:04:48;;;;;;;9.40;2.17;;;;;;;-145.50;100.00;65435.88;4929991;29;20555;-71
2023/03/31 03:07:23;;;;;;;9.57;1.98;;;;;;;-145.50;100.00;65435.88;4925055;29;20106;-69
2023/03/31 03:10:11;;;;;;;11.88;2.20;;;;;;;-145.50;100.00;65435.88;4920267;29;20590;-71
2023/03/31 03:12:56;;;;;;;6.13;1.23;;;;;;;-145.50;100.00;65435.88;4922478;29;20523;-70
2023/03/31 03:15:29;;;;;;;10.30;2.60;;;;;;;-145.50;100.00;65435.88;4928189;29;20047;-71
2023/03/31 03:17:56;;;;;;;6.80;1.40;;;;;;;-145.50;100.00;65435.88;4926434;29;20063;-70
2023/03/31 03:20:23;;;;;;;5.88;1.42;;;;;;;-145.50;100.00;65435.88;4938997;29;20085;-71
2023/03/31 03:22:50;;;;;;;6.13;1.42;;;;;;;-145.50;100.00;65435.88;4919230;28;20054;-69
2023/03/31 03:25:17;;;;;;;7.55;1.50;;;;;;;-145.50;100.00;65435.88;4937976;29;20062;-71
2023/03/31 03:27:43;;;;;;;7.85;1.40;;;;;;;-145.50;100.00;65435.88;4938508;29;20051;-71
2023/03/31 03:30:11;;;;;;;10.25;1.98;;;;;;;-145.50;100.00;65435.88;4926985;28;20733;-69
2023/03/31 03:32:40;;;;;;;8.68;1.52;;;;;;;-145.50;100.00;65435.88;4911707;29;20062;-70
2023/03/31 03:35:07;;;;;;;7.38;1.38;;;;;;;-145.50;100.00;65435.88;4927786;28;20057;-69
2023/03/31 03:37:33;;;;;;;6.63;1.55;;;;;;;-145.50;100.00;65435.88;4936954;28;20151;-71
2023/03/31 03:40:00;;;;;;;10.25;2.08;;;;;;;-145.50;100.00;65435.88;4931105;28;20051;-69
2023/03/31 03:42:26;;;;;;;10.55;1.90;;;;;;;-145.50;100.00;65435.88;4941761;29;20146;-71
2023/03/31 03:44:53;;;;;;;10.02;1.90;;;;;;;-145.50;100.00;65435.88;4927948;29;20200;-71
2023/03/31 03:47:19;;;;;;;17.27;2.60;;;;;;;-145.50;100.00;65435.88;4925809;29;20067;-71
2023/03/31 03:49:47;;;;;;;12.93;2.20;;;;;;;-145.50;100.00;65435.88;4936174;29;20055;-70
2023/03/31 03:52:14;;;;;;;7.07;1.90;;;;;;;-145.50;100.00;65435.88;4927280;28;20564;-70
2023/03/31 03:54:41;;;;;;;9.95;1.92;;;;;;;-145.50;100.00;65435.88;4939304;29;20567;-71
2023/03/31 03:57:07;;;;;;;8.85;1.65;;;;;;;-145.50;100.00;65435.88;4933706;29;20052;-71
2023/03/31 03:59:34;;;;;;;12.63;1.95;;;;;;;-145.50;100.00;65435.88;4934414;29;20099;-71
2023/03/31 04:02:01;;;;;;;10.95;2.13;;;;;;;-145.50;100.00;65435.88;4933378;29;20134;-71
2023/03/31 04:04:27;;;;;;;8.00;1.95;;;;;;;-145.50;100.00;65435.88;4914569;29;20130;-70
2023/03/31 04:06:54;;;;;;;10.57;2.15;;;;;;;-145.50;100.00;65435.88;4932266;29;20055;-70
2023/03/31 04:09:20;;;;;;;12.10;2.00;;;;;;;-145.50;100.00;65435.88;4925934;29;20055;-69
2023/03/31 04:11:47;;;;;;;13.13;2.35;;;;;;;-145.50;100.00;65435.88;4930862;29;20421;-70
2023/03/31 04:14:13;;;;;;;12.35;2.10;;;;;;;-145.50;100.00;65435.88;4933004;29;20074;-70
2023/03/31 04:16:41;;;;;;;7.15;1.80;;;;;;;-145.50;100.00;65435.88;4914676;29;20058;-70
2023/03/31 04:19:10;;;;;;;14.80;2.33;;;;;;;-145.50;100.00;65435.88;4926833;29;20051;-71
2023/03/31 04:21:43;;;;;;;;;;;;;;;-145.50;100.00;65435.88;4920939;29;20505;-70
2023/03/31 04:24:20;;;;;;;13.75;2.45;;;;;;;-145.50;100.00;65435.88;4941802;29;19926;-71
2023/03/31 04:26:49;;;;;;;10.70;2.00;;;;;;;-145.50;100.00;65435.88;4929848;28;20107;-71
2023/03/31 04:29:18;;;;;;;9.60;1.85;;;;;;;-145.50;100.00;65435.88;4926763;29;20078;-70
2023/03/31 04:31:45;;;;;;;;;;;;;;;-145.50;100.00;65435.88;4931785;29;20059;-70
2023/03/31 04:34:14;;;;;;;12.98;2.40;;;;;;;-145.50;100.00;65435.88;4919696;29;19929;-70
2023/03/31 04:36:45;;;;;;;8.48;1.77;;;;;;;-145.50;100.00;65435.88;4938525;29;20058;-71
2023/03/31 04:39:25;;;;;;;10.65;2.55;;;;;;;-145.50;100.00;65435.88;4918928;29;20067;-71
2023/03/31 04:41:52;;;;;;;11.02;1.95;;;;;;;-145.50;100.00;65435.88;4940399;29;20422;-69
2023/03/31 04:44:19;;;;;;;10.32;2.25;;;;;;;-145.50;100.00;65435.88;4901919;28;20081;-68
2023/03/31 04:46:45;;;;;;;10.57;2.35;;;;;;;-145.50;100.00;65435.88;4934542;29;20051;-70
2023/03/31 04:49:12;;;;;;;10.45;2.15;;;;;;;-145.50;100.00;65435.88;4915312;29;20412;-71
2023/03/31 04:51:38;;;;;;;12.48;1.92;;;;;;;-145.50;100.00;65435.88;4933896;29;20055;-70
2023/03/31 04:54:05;;;;;;;7.05;1.60;;;;;;;-145.50;100.00;65435.88;4925900;29;20472;-71
2023/03/31 04:56:31;;;;;;;9.35;1.90;;;;;;;-145.50;100.00;65435.88;4929862;28;20058;-71
2023/03/31 04:58:58;;;;;;;10.98;1.83;;;;;;;-145.50;100.00;65435.88;4929011;29;20163;-70
2023/03/31 05:01:24;;;;;;;6.75;1.95;;;;;;;-145.50;100.00;65435.88;4919210;28;20059;-71
2023/03/31 05:03:51;;;;;;;9.10;2.42;;;;;;;-145.50;100.00;65435.88;4935692;29;20843;-71
2023/03/31 05:06:18;;;;;;;5.57;1.77;;;;;;;-145.50;100.00;65435.88;4935753;29;20056;-69
2023/03/31 05:08:44;;;;;;;8.65;1.80;;;;;;;-145.50;100.00;65435.88;4925337;28;20062;-72
2023/03/31 05:11:11;;;;;;;9.50;1.88;;;;;;;-145.50;100.00;65435.88;4934067;29;20051;-70
2023/03/31 05:13:37;;;;;;;8.65;2.25;;;;;;;-145.50;100.00;65435.88;4923748;29;20051;-69
2023/03/31 05:16:09;;;;;;;8.38;1.88;;;;;;;-145.50;100.00;65435.88;4936481;29;20051;-71
2023/03/31 05:18:36;;;;;;;9.95;2.00;;;;;;;-145.50;100.00;65435.88;4936174;29;20519;-68
2023/03/31 05:21:14;;;;;;;9.90;2.45;;;;;;;-145.50;100.00;65435.88;4931239;29;20095;-70
2023/03/31 05:23:41;;;;;;;8.95;1.77;;;;;;;-145.50;100.00;65435.88;4940953;29;20063;-72
2023/03/31 05:26:08;;;;;;;7.88;2.00;;;;;;;-145.50;100.00;65435.88;4928211;29;20063;-69
2023/03/31 05:28:35;;;;;;;6.68;1.65;;;;;;;-145.50;100.00;65435.88;4907597;29;20060;-71
2023/03/31 05:31:03;;;;;;;7.22;1.77;;;;;;;-145.50;100.00;65435.88;4929329;28;20138;-71
2023/03/31 05:33:30;;;;;;;15.57;1.90;;;;;;;-145.50;100.00;65435.88;4929980;29;20051;-72
2023/03/31 05:35:59;;;;;;;10.18;2.90;;;;;;;-145.50;100.00;65435.88;4922199;28;20149;-72
2023/03/31 05:38:30;;;;;;;8.95;1.80;;;;;;;-145.50;100.00;65435.88;4928187;29;20431;-72
2023/03/31 05:40:57;;;;;;;9.20;2.15;;;;;;;-145.50;100.00;65435.88;4928663;29;20051;-70
2023/03/31 05:43:23;;;;;;;9.05;2.22;;;;;;;-145.50;100.00;65435.88;4925753;28;20060;-72
2023/03/31 05:45:50;;;;;;;9.15;1.90;;;;;;;-145.50;100.00;65435.88;4937898;29;20050;-72
2023/03/31 05:48:17;;;;;;;7.82;1.80;;;;;;;-145.50;100.00;65435.88;4926131;29;20062;-69
2023/03/31 05:50:43;;;;;;;11.35;2.10;;;;;;;-145.50;100.00;65435.88;4939010;29;20062;-72
2023/03/31 05:53:10;;;;;;;6.93;1.65;;;;;;;-145.50;100.00;65435.88;4929085;29;20052;-72
2023/03/31 05:55:37;;;;;;;6.72;1.70;;;;;;;-145.50;100.00;65435.88;4925729;29;20118;-70
2023/03/31 05:58:04;;;;;;;8.65;1.83;;;;;;;-145.50;100.00;65435.88;4932979;29;20051;-72
2023/03/31 06:00:30;;;;;;;9.90;2.00;;;;;;;-145.50;100.00;65435.88;4927910;28;20055;-72
2023/03/31 06:02:58;;;;;;;11.80;1.90;;;;;;;-145.50;100.00;65435.88;4934641;29;20066;-70
2023/03/31 06:05:29;;;;;;;7.95;1.50;;;;;;;-145.50;100.00;65435.88;4922213;29;20051;-72
2023/03/31 06:07:56;;;;;;;10.27;1.85;;;;;;;-145.50;100.00;65435.88;4934438;29;20083;-71
2023/03/31 06:10:23;;;;;;;12.63;2.33;;;;;;;-145.50;100.00;65435.88;4919521;29;20138;-70
2023/03/31 06:12:49;;;;;;;7.63;1.80;;;;;;;-145.50;100.00;65435.88;4928805;29;20051;-71
2023/03/31 06:15:16;;;;;;;8.52;1.90;;;;;;;-145.50;100.00;65435.88;4936053;29;20070;-71
2023/03/31 06:17:43;;;;;;;9.70;1.77;;;;;;;-145.50;100.00;65435.88;4923482;29;20047;-71
2023/03/31 06:20:09;;;;;;;10.13;2.03;;;;;;;-145.50;100.00;65435.88;4935489;29;20134;-71
2023/03/31 06:22:52;;;;;;;5.70;1.60;;;;;;;-145.50;100.00;65435.88;4921823;28;20058;-72
2023/03/31 06:25:20;;;;;;;9.00;1.73;;;;;;;-145.50;100.00;65435.88;4941460;29;20645;-72
2023/03/31 06:27:47;;;;;;;6.27;1.70;;;;;;;-145.50;100.00;65435.88;4921852;28;20057;-69
2023/03/31 06:30:13;;;;;;;8.52;1.90;;;;;;;-145.50;100.00;65435.88;4931696;29;20081;-72
2023/03/31 06:32:40;;;;;;;9.77;1.75;;;;;;;-145.50;100.00;65435.88;4938846;29;20047;-72
2023/03/31 06:35:07;;;;;;;5.15;1.60;;;;;;;-145.50;100.00;65435.88;4930434;28;20062;-72
2023/03/31 06:37:33;;;;;;;6.68;1.42;;;;;;;-145.50;100.00;65435.88;4932107;29;20044;-68
2023/03/31 06:40:00;;;;;;;7.35;1.63;;;;;;;-145.50;100.00;65435.88;4928807;28;20065;-68
2023/03/31 06:42:26;;;;;;;5.65;1.20;;;;;;;-145.50;100.00;65435.88;4932298;29;20059;-71
2023/03/31 06:44:54;;;;;;;5.80;1.40;;;;;;;-145.50;100.00;65435.88;4926704;29;20776;-68
2023/03/31 06:47:21;;;;;;;4.18;1.10;;;;;;;-145.50;100.00;65435.88;4933910;29;20654;-70
2023/03/31 06:49:47;;;;;;;6.28;1.45;;;;;;;-145.50;100.00;65435.88;4920694;29;20047;-71
2023/03/31 06:52:14;;;;;;;6.80;1.25;;;;;;;-145.50;100.00;65435.88;4927540;28;20712;-71
2023/03/31 06:54:41;;;;;;;6.68;1.30;;;;;;;-145.50;100.00;65435.88;4933231;29;20047;-71
2023/03/31 06:57:07;;;;;;;8.00;1.50;;;;;;;-145.50;100.00;65435.88;4932037;29;20051;-71
2023/03/31 06:59:34;;;;;;;5.60;1.17;;;;;;;-145.50;100.00;65435.88;4915729;29;20518;-71
2023/03/31 07:02:01;;;;;;;6.85;1.33;;;;;;;-145.50;100.00;65435.88;4939102;29;20471;-71
2023/03/31 07:04:27;;;;;;;6.65;1.30;;;;;;;-145.50;100.00;65435.88;4919911;28;20087;-71
2023/03/31 07:06:54;;;;;;;4.05;1.13;;;;;;;-145.50;100.00;65435.88;4928514;29;20520;-71
2023/03/31 07:09:22;;;;;;;5.13;1.00;;;;;;;-145.50;100.00;65435.88;4939789;28;20142;-70
2023/03/31 07:11:49;;;;;;;3.87;1.40;;;;;;;-145.50;100.00;65435.88;4932042;29;20463;-69
2023/03/31 07:14:15;;;;;;;4.35;1.27;;;;;;;-145.50;100.00;65435.88;4934146;28;20047;-72
2023/03/31 07:16:42;;;;;;;4.82;1.35;;;;;;;-145.50;100.00;65435.88;4921524;29;20111;-70
2023/03/31 07:19:09;;;;;;;7.68;1.30;;;;;;;-145.50;100.00;65435.88;4923283;29;20639;-70
2023/03/31 07:21:37;;;;;;;3.72;1.27;;;;;;;-145.50;100.00;65435.88;4919511;29;20062;-68
2023/03/31 07:24:03;;;;;;;5.63;1.52;;;;;;;-145.50;100.00;65435.88;4916626;29;20063;-70
2023/03/31 07:26:30;;;;;;;8.15;1.48;;;;;;;-145.50;100.00;65435.88;4935167;28;20473;-71
2023/03/31 07:28:56;;;;;;;5.05;1.42;;;;;;;-145.50;100.00;65435.88;4933228;29;20083;-71
2023/03/31 07:31:24;;;;;;;7.07;1.60;;;;;;;-145.50;100.00;65435.88;4935120;28;20061;-67
2023/03/31 07:33:51;;;;;;;8.30;1.70;;;;;;;-145.50;100.00;65435.88;4908752;29;20089;-71
2023/03/31 07:36:17;;;;;;;4.63;1.25;;;;;;;-145.50;100.00;65435.88;4932917;29;20770;-69
2023/03/31 07:38:47;;;;;;;3.78;1.13;;;;;;;-145.50;100.00;65435.88;4934489;28;20051;-72
2023/03/31 07:41:17;;;;;;;8.20;1.77;;;;;;;-145.50;100.00;65435.88;4937648;29;20062;-71
2023/03/31 07:43:45;;;;;;;5.70;1.27;;;;;;;-145.50;100.00;65435.88;4929293;29;20059;-71
2023/03/31 07:46:16;;;;;;;5.53;1.40;;;;;;;-145.50;100.00;65435.88;4929509;29;20054;-70
2023/03/31 07:48:45;;;;;;;6.85;1.60;;;;;;;-145.50;100.00;65435.88;4912110;28;20504;-70
2023/03/31 07:51:12;;;;;;;;;;;;;;;-145.50;100.00;65435.88;4926983;29;20051;-72
2023/03/31 07:53:39;;;;;;;3.20;1.00;;;;;;;-145.50;100.00;65435.88;4931158;29;19931;-68
2023/03/31 07:56:06;;;;;;;5.03;1.00;;;;;;;-145.50;100.00;65435.88;4920840;29;20044;-71
2023/03/31 07:58:34;;;;;;;3.88;1.13;;;;;;;-145.50;100.00;65435.88;4938674;29;20052;-71
2023/03/31 08:01:01;;;;;;;7.03;1.13;;;;;;;-145.50;100.00;65435.88;4928257;28;20059;-71
2023/03/31 08:03:28;;;;;;;4.47;1.23;;;;;;;-145.50;100.00;65435.88;4926144;29;20509;-71
2023/03/31 08:05:54;;;;;;;4.90;1.15;;;;;;;-145.50;100.00;65435.88;4936697;28;20051;-68
2023/03/31 08:08:21;;;;;;;3.63;1.05;;;;;;;-145.50;100.00;65435.88;4931550;29;20135;-71
2023/03/31 08:10:48;;;;;;;4.28;1.02;;;;;;;-145.50;100.00;65435.88;4931658;29;20058;-71
2023/03/31 08:13:14;;;;;;;4.88;1.33;;;;;;;-145.50;100.00;65435.88;4930032;29;20512;-72
2023/03/31 08:15:41;;;;;;;4.35;1.20;;;;;;;-145.50;100.00;65435.88;4933499;29;20130;-72
2023/03/31 08:18:07;;;;;;;5.30;1.35;;;;;;;-145.50;100.00;65435.88;4922843;29;20073;-71
2023/03/31 08:20:34;;;;;;;4.80;1.20;;;;;;;-145.50;100.00;65435.88;4930755;29;20055;-70
2023/03/31 08:23:01;;;;;;;6.18;1.25;;;;;;;-145.50;100.00;65435.88;4939406;29;20412;-71
2023/03/31 08:25:27;;;;;;;6.40;1.25;;;;;;;-145.50;100.00;65435.88;4932202;28;20055;-71
2023/03/31 08:27:54;;;;;;;4.50;1.17;;;;;;;-145.50;100.00;65435.88;4940806;29;20055;-71
2023/03/31 08:30:21;;;;;;;6.15;1.38;;;;;;;-145.50;100.00;65435.88;4923318;29;20091;-72
2023/03/31 08:32:48;;;;;;;7.20;2.03;;;;;;;-145.50;100.00;65435.88;4932923;29;20051;-70
2023/03/31 08:35:14;;;;;;;9.27;1.80;;;;;;;-145.50;100.00;65435.88;4935269;28;20413;-70
2023/03/31 08:37:41;;;;;;;8.27;2.35;;;;;;;-145.50;100.00;65435.88;4936668;29;20051;-72
2023/03/31 08:40:15;;;;;;;3.95;1.52;;;;;;;-145.50;100.00;65435.88;4936809;29;20085;-71
2023/03/31 08:42:48;;;;;;;9.32;1.92;;;;;;;-145.50;100.00;65435.88;4921874;28;20059;-69
2023/03/31 08:45:18;;;;;;;8.50;2.63;;;;;;;-145.50;100.00;65435.88;4923151;29;20047;-72
2023/03/31 08:47:46;;;;;;;11.90;2.35;;;;;;;-145.50;100.00;65435.88;4921792;28;20059;-69
2023/03/31 08:50:23;;;;;;;8.55;1.80;;;;;;;-145.50;100.00;65435.88;4933506;29;20094;-72
2023/03/31 08:53:12;;;;;;;7.85;2.00;;;;;;;-145.50;100.00;65435.88;4919295;28;20134;-71
2023/03/31 08:55:41;;;;;;;10.70;2.88;;;;;;;-145.50;100.00;65435.88;4934739;29;20043;-70
2023/03/31 08:58:42;;;;;;;10.00;2.17;;;;;;;-145.50;100.00;65435.88;4926249;28;20085;-72
2023/03/31 09:01:23;;;;;;;12.63;2.25;;;;;;;-145.50;100.00;65435.88;4925742;29;20496;-68
2023/03/31 09:04:36;;;;;;;12.23;2.55;;;;;;;-145.50;100.00;65435.88;4918528;29;20079;-71
2023/03/31 09:07:37;;;;;;;14.77;2.83;;;;;;;-145.50;100.00;65435.88;4907790;29;20095;-70
2023/03/31 09:10:21;;;;;;;9.98;2.15;;;;;;;-145.50;100.00;65435.88;4922554;28;20172;-71
2023/03/31 09:12:50;;;;;;;12.48;2.63;;;;;;;-145.50;100.00;65435.88;4928565;29;20055;-70
2023/03/31 09:15:42;;;;;;;10.70;2.35;;;;;;;-145.50;100.00;65435.88;4931847;28;20514;-69
2023/03/31 09:18:29;;;;;;;12.98;2.35;;;;;;;-145.50;100.00;65435.88;4939755;29;20043;-71
2023/03/31 09:21:05;;;;;;;11.80;2.83;;;;;;;-145.50;100.00;65435.88;4934901;29;20135;-71
2023/03/31 09:23:37;;;;;;;13.38;2.42;;;;;;;-145.50;100.00;65435.88;4945422;29;20055;-71
2023/03/31 09:26:03;;;;;;;14.15;2.40;;;;;;;-145.50;100.00;65435.88;4933345;29;20083;-72
2023/03/31 09:28:37;;;;;;;11.57;2.63;;;;;;;-145.50;100.00;65435.88;4921624;29;20469;-71
2023/03/31 09:31:13;;;;;;;12.10;3.13;;;;;;;-145.50;100.00;65435.88;4929217;29;20416;-72
2023/03/31 09:33:44;;;;;;;12.15;3.20;;;;;;;-145.50;100.00;65435.88;4927823;29;20146;-71
2023/03/31 09:36:17;;;;;;;14.13;2.90;;;;;;;-145.50;100.00;65435.88;4928152;28;20048;-70
2023/03/31 09:38:45;;;;;;;15.60;3.10;;;;;;;-145.50;100.00;65435.88;4926539;29;21059;-72
2023/03/31 09:41:14;;;;;;;12.13;3.13;;;;;;;-145.50;100.00;65435.88;4933635;29;20047;-72
2023/03/31 09:43:42;;;;;;;12.60;3.15;;;;;;;-145.50;100.00;65435.88;4926657;29;20078;-72
2023/03/31 09:46:29;;;;;;;14.23;3.13;;;;;;;-145.50;100.00;65435.88;4942369;28;20134;-73
2023/03/31 09:49:19;;;;;;;14.55;3.33;;;;;;;-145.50;100.00;65435.88;4936974;29;20941;-71
2023/03/31 09:51:51;;;;;;;14.55;3.22;;;;;;;-145.50;100.00;65435.88;4937365;28;20066;-72
2023/03/31 09:54:28;;;;;;;11.75;3.17;;;;;;;-145.50;100.00;65435.88;4922649;29;20059;-71
2023/03/31 09:56:54;;;;;;;10.65;2.83;;;;;;;-145.50;100.00;65435.88;4932444;28;20062;-72
2023/03/31 09:59:29;;;;;;;10.77;2.90;;;;;;;-145.50;100.00;65435.88;4943159;29;20488;-71
2023/03/31 10:01:59;;;;;;;12.15;2.78;;;;;;;-145.50;100.00;65435.88;4941152;28;20085;-72
2023/03/31 10:04:29;;;;;;;13.55;2.88;;;;;;;-145.50;100.00;65435.88;4947443;29;20911;-72
2023/03/31 10:06:57;;;;;;;12.52;2.72;;;;;;;-145.50;100.00;65435.88;4930286;29;20059;-72
2023/03/31 10:09:27;;;;;;;9.93;2.60;;;;;;;-145.50;100.00;65435.88;4926213;29;20065;-69
2023/03/31 10:12:03;;;;;;;14.15;2.65;;;;;;;-145.50;100.00;65435.88;4935824;29;20731;-68
2023/03/31 10:14:40;;;;;;;8.60;2.38;;;;;;;-145.50;100.00;65435.88;4933617;28;20062;-69
2023/03/31 10:17:14;;;;;;;12.88;2.78;;;;;;;-145.50;100.00;65435.88;4944816;29;20051;-68
2023/03/31 10:19:48;;;;;;;15.50;2.17;;;;;;;-145.50;100.00;65435.88;4940737;28;20066;-72
2023/03/31 10:22:27;;;;;;;10.40;2.50;;;;;;;-145.50;100.00;65435.88;4928717;29;20047;-70
2023/03/31 10:25:08;;;;;;;13.20;2.42;;;;;;;-145.50;100.00;65435.88;4925897;29;20071;-71
2023/03/31 10:27:39;;;;;;;13.88;2.70;;;;;;;-145.50;100.00;65435.88;4941313;29;20133;-68
2023/03/31 10:30:11;;;;;;;12.25;2.47;;;;;;;-145.50;100.00;65435.88;4928147;29;20151;-72
2023/03/31 10:32:41;;;;;;;9.90;1.85;;;;;;;-145.50;100.00;65435.88;4935299;29;20146;-69
2023/03/31 10:35:23;;;;;;;10.82;2.20;;;;;;;-145.50;100.00;65435.88;4941962;29;20143;-68
2023/03/31 10:37:55;;;;;;;10.85;2.30;;;;;;;-145.50;100.00;65435.88;4930874;28;20082;-71
2023/03/31 10:40:25;;;;;;;12.00;2.05;;;;;;;-145.50;100.00;65435.88;4935416;29;20091;-67
2023/03/31 10:43:21;;;;;;;10.75;2.15;;;;;;;-145.50;100.00;65435.88;4952291;28;20070;-68
2023/03/31 10:46:06;;;;;;;6.80;1.67;;;;;;;-145.50;100.00;65435.88;4963802;29;20102;-70
2023/03/31 10:48:39;;;;;;;12.90;2.97;;;;;;;-145.50;100.00;65435.88;4948459;28;20062;-70
2023/03/31 10:51:12;;;;;;;10.98;2.05;;;;;;;-145.50;100.00;65435.88;4941095;29;20385;-71
2023/03/31 10:53:43;;;;;;;13.63;2.50;;;;;;;-145.50;100.00;65435.88;4933379;28;20052;-68
2023/03/31 10:56:40;;;;;;;11.95;1.98;;;;;;;-145.50;100.00;65435.88;4936434;29;20055;-67
2023/03/31 10:59:25;;;;;;;13.30;2.80;;;;;;;-145.50;100.00;65435.88;4935555;28;20587;-70
2023/03/31 11:02:07;;;;;;;6.68;1.73;;;;;;;-145.50;100.00;65435.88;4940168;29;20427;-70
2023/03/31 11:04:43;;;;;;;10.18;2.08;;;;;;;-145.50;100.00;65435.88;4927657;29;20333;-71
2023/03/31 11:07:40;;;;;;;13.57;2.80;;;;;;;-145.50;100.00;65435.88;4927775;28;20895;-70
2023/03/31 11:10:16;;;;;;;14.77;2.08;;;;;;;-145.50;100.00;65435.88;4925816;29;20070;-70
2023/03/31 11:13:23;;;;;;;15.10;2.15;;;;;;;-145.50;100.00;65435.88;4927844;28;20106;-70
2023/03/31 11:16:20;;;;;;;6.88;1.88;;;;;;;-145.50;100.00;65435.88;4933152;29;20047;-70
2023/03/31 11:19:05;;;;;;;6.20;1.80;;;;;;;-145.50;100.00;65435.88;4934657;29;20058;-70
2023/03/31 11:21:53;;;;;;;10.40;2.42;;;;;;;-145.50;100.00;65435.88;4930110;29;20138;-73
2023/03/31 11:24:23;;;;;;;9.93;1.80;;;;;;;-145.50;100.00;65435.88;4930827;28;20063;-70
2023/03/31 11:27:11;;;;;;;12.82;2.42;;;;;;;-145.50;100.00;65435.88;4934116;29;20174;-69
2023/03/31 11:29:45;;;;;;;;;;;;;;;-145.50;100.00;65435.88;4934072;29;20138;-71
2023/03/31 11:32:40;;;;;;;11.98;2.15;;;;;;;-145.50;100.00;65435.88;4935869;29;19923;-68